Time;durP1;ratioP1;P1;durP2;ratioP2;P2;SDS_P1;SDS_P2;PMS_P1;PMS_P2;Temp;Humidity;BMP_temperature;BMP_pressure;BME280_temperature;BME280_humidity;BME280_pressure;Samples;Min_cycle;Max_cycle;Signal;HPM_P1;HPM_P2
2019/04/08 00:00:41;;;;;;;2;1.5;;;;;;;22.08;36.76758;994.0322;;;;
2019/04/08 00:03:07;;;;;;;1.6;1.5;;;;;;;22.1;36.75684;994.1228;;;;
2019/04/08 00:05:32;;;;;;;1.4;1.3;;;;;;;22.08;36.71973;994.0555;;;;
2019/04/08 00:08:07;;;;;;;2.1;1.6;;;;;;;22.06;36.96582;994.2089;;;;
2019/04/08 00:10:32;;;;;;;1.5;1.4;;;;;;;22.08;36.9082;994.1647;;;;
2019/04/08 00:13:06;;;;;;;1.7;1.6;;;;;;;22.06;36.91895;994.0818;;;;
2019/04/08 00:15:35;;;;;;;1.9;1.7;;;;;;;22.08;36.86133;994.1005;;;;
2019/04/08 00:18:01;;;;;;;1.7;1.6;;;;;;;22.07;36.88477;994.1292;;;;
2019/04/08 00:20:35;;;;;;;1.4;1.3;;;;;;;22.07;36.83691;994.1077;;;;
2019/04/08 00:23:05;;;;;;;1.3;1.2;;;;;;;22.08;36.91992;994.1238;;;;
2019/04/08 00:25:36;;;;;;;2;1.6;;;;;;;22.05;36.88184;994.2083;;;;
2019/04/08 00:28:01;;;;;;;1.5;1.4;;;;;;;22.03;37.10449;994.1624;;;;
2019/04/08 00:30:35;;;;;;;2.1;1.5;;;;;;;22.03;37.03418;994.217;;;;
2019/04/08 00:33:03;;;;;;;1.6;1.5;;;;;;;22.02;37.1748;994.1819;;;;
2019/04/08 00:35:40;;;;;;;2;1.5;;;;;;;22.02;37.16309;994.1464;;;;
2019/04/08 00:38:12;;;;;;;1.7;1.6;;;;;;;22;37.24414;994.181;;;;
2019/04/08 00:40:43;;;;;;;1.5;1.4;;;;;;;22;37.23145;994.1772;;;;
2019/04/08 00:43:08;;;;;;;1.8;1.5;;;;;;;22;37.25586;994.1459;;;;
2019/04/08 00:45:45;;;;;;;1.6;1.5;;;;;;;21.99;37.37207;994.1025;;;;
2019/04/08 00:48:15;;;;;;;1.5;1.4;;;;;;;21.97;37.22949;994.1467;;;;
2019/04/08 00:50:42;;;;;;;1.7;1.6;;;;;;;21.97;37.45313;994.1836;;;;
2019/04/08 00:53:10;;;;;;;2;1.4;;;;;;;21.97;37.46484;994.17;;;;
2019/04/08 00:55:41;;;;;;;1.5;1.3;;;;;;;21.96;37.33496;994.158;;;;
2019/04/08 00:58:16;;;;;;;1.7;1.6;;;;;;;21.95;37.50977;994.1558;;;;
2019/04/08 01:00:48;;;;;;;1.6;1.4;;;;;;;21.95;37.45117;994.1708;;;;
2019/04/08 01:03:17;;;;;;;1.5;1.4;;;;;;;21.97;37.54785;994.1836;;;;
2019/04/08 01:05:49;;;;;;;1.4;1.3;;;;;;;21.99;37.41992;994.1886;;;;
2019/04/08 01:08:25;;;;;;;1.4;1.3;;;;;;;21.98;37.44238;994.149;;;;
2019/04/08 01:10:58;;;;;;;1.4;1.3;;;;;;;21.97;37.46484;994.0881;;;;
2019/04/08 01:13:28;;;;;;;1.4;1.3;;;;;;;22.01;37.29199;994.1426;;;;
2019/04/08 01:16:01;;;;;;;1.3;1.2;;;;;;;21.99;37.38477;994.1708;;;;
2019/04/08 01:18:38;;;;;;;2;1.4;;;;;;;22;37.44434;994.1691;;;;
2019/04/08 01:21:04;;;;;;;1.6;1.4;;;;;;;21.98;37.40723;994.1627;;;;
2019/04/08 01:23:37;;;;;;;1.3;1.2;;;;;;;22;37.30273;994.1909;;;;
2019/04/08 01:26:04;;;;;;;1.4;1.3;;;;;;;21.99;37.3252;994.2706;;;;
2019/04/08 01:28:28;;;;;;;1.5;1.4;;;;;;;22.01;37.24414;994.1153;;;;
2019/04/08 01:30:53;;;;;;;1.5;1.2;;;;;;;22.02;37.20996;994.2324;;;;
2019/04/08 01:33:22;;;;;;;1.5;1.4;;;;;;;22.03;37.1748;994.1624;;;;
2019/04/08 01:35:56;;;;;;;1.3;1.2;;;;;;;22.01;37.23145;994.2629;;;;
2019/04/08 01:38:20;;;;;;;1.4;1.2;;;;;;;21.99;37.25488;994.2432;;;;
2019/04/08 01:40:46;;;;;;;1.5;1.4;;;;;;;22.01;37.2207;994.2383;;;;
2019/04/08 01:43:15;;;;;;;1.3;1.2;;;;;;;22.01;37.24414;994.2165;;;;
2019/04/08 01:45:56;;;;;;;1.5;1.1;;;;;;;22.03;37.23438;994.2661;;;;
2019/04/08 01:48:25;;;;;;;1.6;1.4;;;;;;;22;37.2793;994.2004;;;;
2019/04/08 01:50:54;;;;;;;1.3;1.2;;;;;;;22.03;37.19922;994.262;;;;
2019/04/08 01:53:22;;;;;;;1.3;1.2;;;;;;;22.04;37.12988;994.2684;;;;
2019/04/08 01:55:50;;;;;;;1.4;1.3;;;;;;;22.06;37.11816;994.3745;;;;
2019/04/08 01:58:25;;;;;;;1.4;1.3;;;;;;;22.04;37.15332;994.3681;;;;
2019/04/08 02:00:54;;;;;;;1.9;1.2;;;;;;;22.03;37.22266;994.426;;;;
2019/04/08 02:03:21;;;;;;;1.4;1.3;;;;;;;22.03;37.22266;994.4028;;;;
2019/04/08 02:05:48;;;;;;;1.2;1.1;;;;;;;22.03;37.19922;994.3481;;;;
2019/04/08 02:08:15;;;;;;;1.3;1.2;;;;;;;22.06;37.10645;994.3336;;;;
2019/04/08 02:10:40;;;;;;;1.3;1;;;;;;;22.05;37.12988;994.3432;;;;
2019/04/08 02:13:06;;;;;;;1.4;1.3;;;;;;;22.05;37.1416;994.3705;;;;
2019/04/08 02:15:41;;;;;;;1.4;1.2;;;;;;;22.04;37.1875;994.4246;;;;
2019/04/08 02:18:17;;;;;;;1.4;1.2;;;;;;;22.06;37.11914;994.4275;;;;
2019/04/08 02:20:46;;;;;;;1.2;1.1;;;;;;;22.08;37.08496;994.4339;;;;
2019/04/08 02:23:20;;;;;;;1.5;1.2;;;;;;;22.07;37.1084;994.4902;;;;
2019/04/08 02:25:51;;;;;;;1.4;1.3;;;;;;;22.06;37.1543;994.4292;;;;
2019/04/08 02:28:17;;;;;;;1.8;1.3;;;;;;;22.08;37.12012;994.4515;;;;
2019/04/08 02:30:44;;;;;;;1.3;1.2;;;;;;;22.07;37.12012;994.5254;;;;
2019/04/08 02:33:34;;;;;;;1.6;1.2;;;;;;;22.06;37.10742;994.5289;;;;
2019/04/08 02:35:41;;;;;;;1.5;1.3;;;;;;;22.06;37.1543;994.4958;;;;
2019/04/08 02:38:08;;;;;;;1.2;1.1;;;;;;;22.06;37.13086;994.4429;;;;
2019/04/08 02:40:35;;;;;;;1.2;1.1;;;;;;;22.04;37.15332;994.5594;;;;
2019/04/08 02:43:15;;;;;;;1.4;1.1;;;;;;;22.05;37.1416;994.5071;;;;
2019/04/08 02:45:41;;;;;;;1.3;1.2;;;;;;;22.06;37.05957;994.5248;;;;
2019/04/08 02:48:10;;;;;;;1.6;1.4;;;;;;;22.06;37.08398;994.5504;;;;
2019/04/08 02:50:47;;;;;;;1.5;1.3;;;;;;;22.05;37.12988;994.5262;;;;
2019/04/08 02:53:27;;;;;;;1.8;1.1;;;;;;;22.03;37.16309;994.5298;;;;
2019/04/08 02:55:51;;;;;;;1.4;1.3;;;;;;;22.04;37.07031;994.6004;;;;
2019/04/08 02:58:20;;;;;;;1.4;1.2;;;;;;;22.04;37.09473;994.4871;;;;
2019/04/08 03:00:47;;;;;;;1.8;1.3;;;;;;;22.03;37.09277;994.4615;;;;
2019/04/08 03:03:24;;;;;;;1.4;1.2;;;;;;;22.06;37.02441;994.4975;;;;
2019/04/08 03:06:01;;;;;;;1.3;1.2;;;;;;;22.06;36.94238;994.519;;;;
2019/04/08 03:08:27;;;;;;;1.2;1.1;;;;;;;22.07;36.91895;994.5272;;;;
2019/04/08 03:10:53;;;;;;;1.4;1.3;;;;;;;22.06;36.97754;994.4684;;;;
2019/04/08 03:13:23;;;;;;;1.5;1.3;;;;;;;22.06;36.98926;994.4684;;;;
2019/04/08 03:15:56;;;;;;;1.2;1.1;;;;;;;22.07;36.95508;994.4612;;;;
2019/04/08 03:18:26;;;;;;;1.3;1.2;;;;;;;22.08;36.88477;994.4475;;;;
2019/04/08 03:21:00;;;;;;;1.4;1.3;;;;;;;22.07;36.94238;994.4998;;;;
2019/04/08 03:23:35;;;;;;;1.2;1.1;;;;;;;22.07;36.91992;994.5254;;;;
2019/04/08 03:26:04;;;;;;;1.4;1.3;;;;;;;22.08;36.89648;994.5198;;;;
2019/04/08 03:28:35;;;;;;;1.4;1.3;;;;;;;22.08;36.96777;994.4694;;;;
2019/04/08 03:31:09;;;;;;;1.4;1.2;;;;;;;22.06;37.03711;994.5053;;;;
2019/04/08 03:33:35;;;;;;;1.4;1.1;;;;;;;22.05;37.08203;994.5303;;;;
2019/04/08 03:36:01;;;;;;;1.4;1.3;;;;;;;22.07;37.0498;994.5254;;;;
2019/04/08 03:38:30;;;;;;;1.3;1.2;;;;;;;22.06;37.07227;994.6051;;;;
2019/04/08 03:40:55;;;;;;;2.2;1.2;;;;;;;22.05;37.08203;994.5754;;;;
2019/04/08 03:43:25;;;;;;;1.3;1.2;;;;;;;22.06;37.02539;994.5327;;;;
2019/04/08 03:46:08;;;;;;;1.2;1.1;;;;;;;22.07;37.00195;994.4981;;;;
2019/04/08 03:48:49;;;;;;;1.3;1.2;;;;;;;22.1;36.91016;994.4644;;;;
2019/04/08 03:51:17;;;;;;;1.2;1.1;;;;;;;22.1;36.94531;994.5696;;;;
2019/04/08 03:53:44;;;;;;;1.2;1.1;;;;;;;22.09;37.0625;994.6042;;;;
2019/04/08 03:56:16;;;;;;;1.2;1.1;;;;;;;22.1;36.94531;994.6516;;;;
2019/04/08 03:58:47;;;;;;;1.3;1.2;;;;;;;22.13;36.87695;994.6644;;;;
2019/04/08 04:02:41;;;;;;;1.3;1.2;;;;;;;22.12;36.95898;994.7026;;;;
2019/04/08 04:05:27;;;;;;;1.4;1.3;;;;;;;22.09;37.09766;994.7134;;;;
2019/04/08 04:07:46;;;;;;;1.3;1.2;;;;;;;22.09;37.0625;994.7039;;;;
2019/04/08 04:10:08;;;;;;;1.2;1.1;;;;;;;22.11;36.96973;994.7495;;;;
2019/04/08 04:12:35;;;;;;;1.2;1.1;;;;;;;22.12;36.92383;994.7205;;;;
2019/04/08 04:15:05;;;;;;;1.4;1.1;;;;;;;22.12;36.87695;994.6876;;;;
2019/04/08 04:17:36;;;;;;;1.4;1.3;;;;;;;22.12;36.91211;994.7149;;;;
2019/04/08 04:20:13;;;;;;;1.1;1;;;;;;;22.14;36.84277;994.7606;;;;
2019/04/08 04:22:40;;;;;;;1.2;1.1;;;;;;;22.14;36.86621;994.6978;;;;
2019/04/08 04:25:06;;;;;;;1.2;1;;;;;;;22.16;36.83203;994.6986;;;;
2019/04/08 04:27:34;;;;;;;1.3;1.2;;;;;;;22.17;36.78613;994.7911;;;;
2019/04/08 04:30:00;;;;;;;1.5;1.4;;;;;;;22.18;36.79883;994.758;;;;
2019/04/08 04:32:26;;;;;;;1.2;1.1;;;;;;;22.19;36.75293;994.8094;;;;
2019/04/08 04:34:53;;;;;;;1.3;1.2;;;;;;;22.17;36.79785;994.8184;;;;
2019/04/08 04:37:26;;;;;;;1.1;1;;;;;;;22.16;36.87891;994.8803;;;;
2019/04/08 04:39:50;;;;;;;1.4;1.2;;;;;;;22.16;36.92676;994.8335;;;;
2019/04/08 04:42:24;;;;;;;1.4;1.3;;;;;;;22.17;36.95117;994.8826;;;;
2019/04/08 04:44:52;;;;;;;2.1;1.4;;;;;;;22.19;36.94141;994.8873;;;;
2019/04/08 04:47:23;;;;;;;1.3;1.2;;;;;;;22.19;36.95313;994.8326;;;;
2019/04/08 04:49:59;;;;;;;1.3;1.2;;;;;;;22.19;36.9541;994.8856;;;;
2019/04/08 04:52:27;;;;;;;1.4;1.3;;;;;;;22.2;36.9668;994.9252;;;;
2019/04/08 04:55:02;;;;;;;1.5;1.3;;;;;;;22.22;36.91992;994.9353;;;;
2019/04/08 04:57:33;;;;;;;1.5;1.4;;;;;;;22.23;36.92188;994.9827;;;;
2019/04/08 05:00:00;;;;;;;1.5;1.3;;;;;;;22.24;36.87402;994.9987;;;;
2019/04/08 05:02:38;;;;;;;1.3;1.2;;;;;;;22.24;36.85059;995.026;;;;
2019/04/08 05:05:06;;;;;;;1.4;1.3;;;;;;;22.25;36.87598;995.0109;;;;
2019/04/08 05:07:46;;;;;;;1.5;1.4;;;;;;;22.25;36.91113;994.9972;;;;
2019/04/08 05:10:20;;;;;;;1.8;1.4;;;;;;;22.25;36.93457;994.96;;;;
2019/04/08 05:12:51;;;;;;;1.6;1.5;;;;;;;22.27;36.94824;995.0839;;;;
2019/04/08 05:15:17;;;;;;;1.9;1.8;;;;;;;22.25;37.07715;995.0365;;;;
2019/04/08 05:17:46;;;;;;;2;1.8;;;;;;;22.25;37.14648;994.9914;;;;
2019/04/08 05:20:11;;;;;;;2.4;1.7;;;;;;;22.23;37.23926;994.9908;;;;
2019/04/08 05:22:39;;;;;;;2;1.8;;;;;;;22.22;37.26172;995.076;;;;
2019/04/08 05:25:06;;;;;;;1.7;1.6;;;;;;;22.22;37.26172;995.1033;;;;
2019/04/08 05:27:35;;;;;;;2.2;2;;;;;;;22.18;37.40039;995.1292;;;;
2019/04/08 05:29:59;;;;;;;2.3;2.1;;;;;;;22.18;37.45898;995.1406;;;;
2019/04/08 05:32:29;;;;;;;2;1.8;;;;;;;22.19;37.41309;995.1998;;;;
2019/04/08 05:35:02;;;;;;;2.1;1.9;;;;;;;22.19;37.40137;995.2781;;;;
2019/04/08 05:37:32;;;;;;;2.1;1.7;;;;;;;22.19;37.35352;995.2877;;;;
2019/04/08 05:40:04;;;;;;;2.2;1.7;;;;;;;22.24;37.51074;995.2993;;;;
2019/04/08 05:42:37;;;;;;;1.9;1.7;;;;;;;22.24;37.28809;995.2761;;;;
2019/04/08 05:45:10;;;;;;;1.6;1.5;;;;;;;22.27;37.125;995.283;;;;
2019/04/08 05:50:25;;;;;;;1.6;1.2;;;;;;;22.31;36.97559;995.365;;;;
2019/04/08 05:53:52;;;;;;;1.8;1.4;;;;;;;22.32;36.95215;995.3674;;;;
2019/04/08 06:00:33;;;;;;;3.1;1.2;;;;;;;22.32;36.89355;995.5041;;;;
2019/04/08 06:03:06;;;;;;;2.1;1.3;;;;;;;22.34;36.85938;995.5142;;;;
2019/04/08 06:08:26;;;;;;;2.5;1.5;;;;;;;22.37;36.75684;995.4883;;;;
2019/04/08 06:13:11;;;;;;;1.9;1.3;;;;;;;22.39;36.69824;995.4892;;;;
2019/04/08 06:15:51;;;;;;;3.5;1.5;;;;;;;22.4;36.67578;995.4465;;;;
2019/04/08 06:18:19;;;;;;;1.9;1.1;;;;;;;22.42;36.61914;995.4323;;;;
2019/04/08 06:20:32;;;;;;;2.2;1.4;;;;;;;22.46;36.54004;995.4105;;;;
2019/04/08 06:27:22;;;;;;;1.9;1.2;;;;;;;22.54;36.35742;995.3979;;;;
2019/04/08 06:30:46;;;;;;;1.6;1.3;;;;;;;22.57;36.26465;995.4144;;;;
2019/04/08 06:33:32;;;;;;;1.5;1.2;;;;;;;22.56;36.27637;995.4476;;;;
2019/04/08 06:40:52;;;;;;;1.8;1.5;;;;;;;22.57;36.21777;995.5047;;;;
2019/04/08 06:43:29;;;;;;;1.9;1.2;;;;;;;22.59;36.16113;995.5325;;;;
2019/04/08 06:45:57;;;;;;;1.9;1.2;;;;;;;22.61;36.06836;995.5276;;;;
2019/04/08 06:48:34;;;;;;;1.5;1.2;;;;;;;22.62;36.08008;995.4715;;;;
2019/04/08 06:51:21;;;;;;;1.8;1.3;;;;;;;22.65;36.02344;995.5098;;;;
2019/04/08 06:53:41;;;;;;;1.9;1.3;;;;;;;22.66;35.97754;995.5355;;;;
2019/04/08 06:56:10;;;;;;;1.3;1.1;;;;;;;22.69;35.90918;995.519;;;;
2019/04/08 07:01:42;;;;;;;1.8;1.2;;;;;;;22.7;35.8623;995.6213;;;;
2019/04/08 07:04:26;;;;;;;1.3;1.2;;;;;;;22.74;35.77148;995.6035;;;;
2019/04/08 07:07:25;;;;;;;3.3;1.5;;;;;;;22.75;35.72559;995.51;;;;
2019/04/08 07:08:43;;;;;;;1.3;1.2;;;;;;;22.8;35.69336;995.4864;;;;
2019/04/08 07:16:11;;;;;;;2.8;1.5;;;;;;;22.88;35.93652;995.5637;;;;
2019/04/08 07:18:28;;;;;;;1.4;1.3;;;;;;;22.88;36.06641;995.6242;;;;
2019/04/08 07:20:58;;;;;;;1.9;1.1;;;;;;;22.89;36.05566;995.6015;;;;
2019/04/08 07:26:14;;;;;;;2.6;1.2;;;;;;;22.97;36.2041;995.6436;;;;
2019/04/08 07:28:44;;;;;;;4.5;1.4;;;;;;;23;36.3125;995.6644;;;;
2019/04/08 07:31:16;;;;;;;1.3;1.2;;;;;;;23.01;36.41992;995.6394;;;;
2019/04/08 07:33:35;;;;;;;3.1;1.2;;;;;;;23.04;36.52734;995.6929;;;;
2019/04/08 07:36:15;;;;;;;3.1;1.2;;;;;;;23.05;36.54102;995.6719;;;;
2019/04/08 07:41:05;;;;;;;1.2;1;;;;;;;23.11;36.39258;995.6354;;;;
2019/04/08 07:43:41;;;;;;;1.8;1.1;;;;;;;23.21;36.16406;995.6727;;;;
2019/04/08 07:58:35;;;;;;;4.5;1.6;;;;;;;23.02;37.24609;995.8251;;;;
2019/04/08 08:03:54;;;;;;;3;1.4;;;;;;;23.13;36.95996;995.8197;;;;
2019/04/08 08:06:33;;;;;;;3.7;1.6;;;;;;;22.87;37.93066;995.835;;;;
2019/04/08 08:09:09;;;;;;;1.8;1.4;;;;;;;22.97;38.75488;995.9172;;;;
2019/04/08 08:14:37;;;;;;;2.9;1.4;;;;;;;23.3;37.50684;995.8442;;;;
2019/04/08 08:17:06;;;;;;;3;1.5;;;;;;;23.37;37.46484;995.8895;;;;
2019/04/08 08:20:16;;;;;;;2.7;1.2;;;;;;;23.38;36.93457;995.9041;;;;
2019/04/08 08:25:10;;;;;;;2.7;1.4;;;;;;;23.46;37.49609;995.983;;;;
2019/04/08 08:27:22;;;;;;;2.3;1.1;;;;;;;23.49;36.80176;995.9706;;;;
2019/04/08 08:29:48;;;;;;;2.7;1.3;;;;;;;23.25;37.73926;995.9009;;;;
2019/04/08 08:35:29;;;;;;;1.8;1.4;;;;;;;23;38.47363;995.9518;;;;
2019/04/08 08:37:31;;;;;;;3;1.7;;;;;;;22.92;38.70215;996.0206;;;;
2019/04/08 08:40:08;;;;;;;2.9;1.8;;;;;;;23;38.70898;995.9573;;;;
2019/04/08 08:42:32;;;;;;;1.9;1.6;;;;;;;22.91;38.77246;995.9988;;;;
2019/04/08 08:50:10;;;;;;;3.4;1.9;;;;;;;22.57;39.3916;995.9149;;;;
2019/04/08 08:53:14;;;;;;;2.7;1.7;;;;;;;22.78;39.18555;995.9547;;;;
2019/04/08 08:54:53;;;;;;;4.4;1.8;;;;;;;22.99;38.6377;995.9218;;;;
2019/04/08 08:59:48;;;;;;;2.4;1;;;;;;;23.48;37.5332;995.9095;;;;
2019/04/08 09:04:51;;;;;;;2.8;1.3;;;;;;;23.56;37.46973;995.9692;;;;
2019/04/08 09:07:15;;;;;;;3;1.4;;;;;;;23.55;36.8291;995.9807;;;;
2019/04/08 09:12:27;;;;;;;4.6;1.6;;;;;;;23.55;37.11328;996.0273;;;;
2019/04/08 09:14:55;;;;;;;2.1;1.6;;;;;;;23.5;37.55859;995.9963;;;;
2019/04/08 09:17:16;;;;;;;4.2;1.3;;;;;;;23.51;37.16895;995.9205;;;;
2019/04/08 09:19:55;;;;;;;1.8;1.2;;;;;;;23.61;37.27246;995.9358;;;;
2019/04/08 09:22:15;;;;;;;1.3;1;;;;;;;23.62;36.88281;996.0066;;;;
2019/04/08 09:27:21;;;;;;;5.5;1.3;;;;;;;23.6;36.97559;996.0061;;;;
2019/04/08 09:37:37;;;;;;;2.8;1.3;;;;;;;23.46;36.84668;995.9186;;;;
2019/04/08 09:39:58;;;;;;;2.7;1.1;;;;;;;23.45;37.09277;995.8712;;;;
2019/04/08 09:42:27;;;;;;;2.6;1.5;;;;;;;23.13;37.65723;995.9428;;;;
2019/04/08 09:45:25;;;;;;;1.6;1.3;;;;;;;23.22;37.47656;995.9487;;;;
2019/04/08 09:47:34;;;;;;;2;1.2;;;;;;;23.18;37.5791;995.9902;;;;
2019/04/08 09:50:04;;;;;;;1.8;1.1;;;;;;;23.33;37.12012;995.9606;;;;
2019/04/08 09:57:27;;;;;;;2;1.1;;;;;;;23.31;37.09473;995.9698;;;;
2019/04/08 10:05:08;;;;;;;2.8;1.3;;;;;;;23.37;36.99219;996.0072;;;;
2019/04/08 10:10:07;;;;;;;2.6;1.1;;;;;;;23.45;37.16406;995.926;;;;
2019/04/08 10:12:24;;;;;;;1.4;1.2;;;;;;;23.56;37.00781;995.9281;;;;
2019/04/08 10:17:29;;;;;;;2.6;1;;;;;;;23.73;36.52539;995.8814;;;;
2019/04/08 10:25:16;;;;;;;2.8;1.1;;;;;;;23.88;36.3252;995.8795;;;;
2019/04/08 10:27:56;;;;;;;3.2;1;;;;;;;23.93;36.34082;995.9045;;;;
2019/04/08 10:32:42;;;;;;;1.9;0.9;;;;;;;24.04;36.17188;995.8106;;;;
2019/04/08 10:35:50;;;;;;;2.1;0.9;;;;;;;24.17;35.96973;995.8585;;;;
2019/04/08 10:37:50;;;;;;;1.7;1;;;;;;;24.2;36.03125;995.875;;;;
2019/04/08 10:45:14;;;;;;;3.6;1;;;;;;;24.02;36.12207;995.9213;;;;
2019/04/08 10:47:41;;;;;;;1.1;1;;;;;;;23.97;36.2959;995.8903;;;;
2019/04/08 10:52:56;;;;;;;2.8;0.9;;;;;;;24.08;36.1748;995.9078;;;;
2019/04/08 11:00:41;;;;;;;2.6;1.1;;;;;;;24.2;36.10254;995.9161;;;;
2019/04/08 11:02:59;;;;;;;2.1;0.9;;;;;;;24.2;36.35059;995.9064;;;;
2019/04/08 11:10:38;;;;;;;2.6;1;;;;;;;24.33;36.96484;995.9146;;;;
2019/04/08 11:15:34;;;;;;;2.5;1.1;;;;;;;24.28;37.36328;995.8893;;;;
2019/04/08 11:29:22;;;;;;;1.8;1.1;;;;;;;24.4;37.29102;995.9267;;;;
2019/04/08 11:33:08;;;;;;;3.6;1;;;;;;;24.47;37.7002;995.9328;;;;
2019/04/08 11:38:23;;;;;;;5.6;1.3;;;;;;;24.35;37.0498;995.9136;;;;
2019/04/08 11:40:39;;;;;;;3.9;1.2;;;;;;;24.3;37.22363;995.9724;;;;
2019/04/08 11:50:44;;;;;;;2.3;1;;;;;;;24.22;36.58887;995.8795;;;;
2019/04/08 11:56:33;;;;;;;2.8;1;;;;;;;24.28;36.15527;995.9578;;;;
2019/04/08 11:58:25;;;;;;;2.3;1.2;;;;;;;24.27;35.93066;995.9048;;;;
2019/04/08 12:07:04;;;;;;;1.9;0.9;;;;;;;24.3;35.53027;995.9724;;;;
2019/04/08 12:09:23;;;;;;;1;0.8;;;;;;;24.3;35.43555;995.8389;;;;
2019/04/08 12:10:53;;;;;;;1.7;1.1;;;;;;;24.29;35.36426;995.8174;;;;
2019/04/08 12:13:49;;;;;;;2;0.8;;;;;;;24.27;35.4209;995.787;;;;
2019/04/08 12:18:33;;;;;;;1.3;1.1;;;;;;;24.26;35.24316;995.7695;;;;
2019/04/08 12:27:22;;;;;;;1;0.9;;;;;;;24.26;35.06543;995.7106;;;;
2019/04/08 12:28:46;;;;;;;1.7;1.2;;;;;;;24.28;35.00684;995.674;;;;
2019/04/08 12:33:20;;;;;;;2.1;1.2;;;;;;;24.34;34.98828;995.7346;;;;
2019/04/08 12:38:22;;;;;;;3.1;1.3;;;;;;;24.17;35.83984;995.7996;;;;
2019/04/08 12:40:56;;;;;;;2.9;1.7;;;;;;;23.83;36.41504;995.8049;;;;
2019/04/08 12:43:30;;;;;;;2.3;1.7;;;;;;;23.69;36.88867;995.7256;;;;
2019/04/08 12:51:14;;;;;;;3.3;1.1;;;;;;;24.04;36.50293;995.7753;;;;
2019/04/08 12:58:49;;;;;;;4.3;1.2;;;;;;;24.33;36.13672;995.7579;;;;
2019/04/08 13:01:15;;;;;;;2.2;1.1;;;;;;;24.42;36.49902;995.6962;;;;
2019/04/08 13:03:44;;;;;;;3.6;1.1;;;;;;;24.48;36.23145;995.7531;;;;
2019/04/08 13:08:55;;;;;;;3;1.1;;;;;;;24.39;35.84473;995.6306;;;;
2019/04/08 13:11:20;;;;;;;1.4;1.1;;;;;;;24.42;36.30957;995.6747;;;;
2019/04/08 13:14:05;;;;;;;1.8;1.1;;;;;;;24.41;35.98926;995.6803;;;;
2019/04/08 13:16:34;;;;;;;2;1;;;;;;;24.4;35.98828;995.6917;;;;
2019/04/08 13:19:15;;;;;;;1.5;1.1;;;;;;;24.38;36.14063;995.6379;;;;
2019/04/08 13:21:53;;;;;;;1.9;1.1;;;;;;;24.37;36.08105;995.589;;;;
2019/04/08 13:24:26;;;;;;;1.7;1;;;;;;;24.38;36.15234;995.5968;;;;
2019/04/08 13:26:55;;;;;;;2.8;1.3;;;;;;;24.35;36.2207;995.6312;;;;
2019/04/08 13:29:19;;;;;;;1.6;1.1;;;;;;;24.32;36.41992;995.5381;;;;
2019/04/08 13:31:55;;;;;;;3.3;1;;;;;;;24.28;36.74805;995.582;;;;
2019/04/08 13:34:21;;;;;;;1.8;1.1;;;;;;;24.22;36.7666;995.619;;;;
2019/04/08 13:36:50;;;;;;;1.6;1.1;;;;;;;24.21;36.48242;995.6208;;;;
2019/04/08 13:39:27;;;;;;;1.9;0.9;;;;;;;24.18;36.50293;995.6552;;;;
2019/04/08 13:42:03;;;;;;;1.8;1.1;;;;;;;24.17;36.5498;995.7173;;;;
2019/04/08 13:44:32;;;;;;;3.4;1.1;;;;;;;24.18;36.71582;995.7019;;;;
2019/04/08 13:46:59;;;;;;;2.3;1;;;;;;;24.19;36.66992;995.6315;;;;
2019/04/08 13:49:36;;;;;;;2.6;1.1;;;;;;;24.21;36.83789;995.6482;;;;
2019/04/08 13:52:05;;;;;;;1.9;0.9;;;;;;;24.26;36.74609;995.6654;;;;
2019/04/08 13:54:31;;;;;;;3.9;0.9;;;;;;;24.24;36.56738;995.6276;;;;
2019/04/08 13:57:01;;;;;;;1.6;1;;;;;;;24.26;36.80566;995.6339;;;;
2019/04/08 13:59:29;;;;;;;1.3;1;;;;;;;24.26;36.65137;995.6202;;;;
2019/04/08 14:02:08;;;;;;;1.1;0.8;;;;;;;24.26;36.75879;995.6694;;;;
2019/04/08 14:04:39;;;;;;;2.8;1;;;;;;;24.25;36.69824;995.6357;;;;
2019/04/08 14:07:12;;;;;;;2.9;1.1;;;;;;;24.26;36.72266;995.5872;;;;
2019/04/08 14:09:41;;;;;;;1.1;0.9;;;;;;;24.24;36.7334;995.6412;;;;
2019/04/08 14:12:13;;;;;;;1.8;1;;;;;;;24.23;36.70898;995.639;;;;
2019/04/08 14:14:39;;;;;;;2.6;1.2;;;;;;;24.23;36.58984;995.6038;;;;
2019/04/08 14:17:19;;;;;;;2;1.1;;;;;;;24.23;36.83887;995.6527;;;;
2019/04/08 14:19:47;;;;;;;3.8;1;;;;;;;24.24;36.68555;995.6198;;;;
2019/04/08 14:22:24;;;;;;;1.9;1.2;;;;;;;24.27;37.06738;995.6484;;;;
2019/04/08 14:24:53;;;;;;;1.6;1;;;;;;;24.27;36.88965;995.5895;;;;
2019/04/08 14:27:30;;;;;;;2.5;1;;;;;;;24.26;37.08984;995.5912;;;;
2019/04/08 14:30:07;;;;;;;2.8;1;;;;;;;24.26;36.77051;995.6147;;;;
2019/04/08 14:32:49;;;;;;;2.1;1;;;;;;;24.3;36.96289;995.5609;;;;
2019/04/08 14:35:16;;;;;;;2.4;1.1;;;;;;;24.27;37.00781;995.5661;;;;
2019/04/08 14:37:46;;;;;;;1.4;1;;;;;;;24.27;36.88965;995.5483;;;;
2019/04/08 14:40:15;;;;;;;2.3;1;;;;;;;24.25;36.81641;995.622;;;;
2019/04/08 14:42:45;;;;;;;2;1;;;;;;;24.24;36.88672;995.6061;;;;
2019/04/08 14:45:15;;;;;;;1.4;1.1;;;;;;;24.22;36.69531;995.666;;;;
2019/04/08 14:47:47;;;;;;;1.8;1;;;;;;;24.19;36.76465;995.5944;;;;
2019/04/08 14:50:19;;;;;;;3.6;1.2;;;;;;;24.18;37.02441;995.6277;;;;
2019/04/08 14:52:49;;;;;;;1.9;0.9;;;;;;;24.17;36.86914;995.5843;;;;
2019/04/08 14:55:23;;;;;;;2;1.1;;;;;;;24.15;36.80859;995.6069;;;;
2019/04/08 14:57:48;;;;;;;1.3;1.1;;;;;;;24.17;37.15332;995.6666;;;;
2019/04/08 15:00:31;;;;;;;3.5;1;;;;;;;24.25;37.16016;995.618;;;;
2019/04/08 15:02:58;;;;;;;1.9;1.1;;;;;;;24.2;37.14453;995.5596;;;;
2019/04/08 15:05:38;;;;;;;2.3;1.2;;;;;;;24.19;37.0957;995.6492;;;;
2019/04/08 15:08:04;;;;;;;2.8;1.1;;;;;;;24.21;37.18164;995.6482;;;;
2019/04/08 15:10:39;;;;;;;1.4;1.2;;;;;;;24.2;37.2627;995.6693;;;;
2019/04/08 15:13:11;;;;;;;1.9;1.1;;;;;;;24.2;37.07227;995.6652;;;;
2019/04/08 15:15:41;;;;;;;1.5;0.9;;;;;;;24.15;36.85645;995.6479;;;;
2019/04/08 15:18:16;;;;;;;2.6;1;;;;;;;24.14;37.1748;995.6458;;;;
2019/04/08 15:20:43;;;;;;;2.6;1.1;;;;;;;24.12;37.35059;995.7017;;;;
2019/04/08 15:23:17;;;;;;;4.8;1.1;;;;;;;24.13;37.1377;995.6494;;;;
2019/04/08 15:25:45;;;;;;;1.9;1.1;;;;;;;24.17;37.4375;995.6214;;;;
2019/04/08 15:28:16;;;;;;;5.5;1.4;;;;;;;24.16;37.54395;995.6054;;;;
2019/04/08 15:30:41;;;;;;;4.2;1.3;;;;;;;24.15;37.51855;995.6909;;;;
2019/04/08 15:33:14;;;;;;;3.2;1.1;;;;;;;24.13;37.66016;995.6983;;;;
2019/04/08 15:35:45;;;;;;;2.9;1;;;;;;;24.13;37.71875;995.7275;;;;
2019/04/08 15:38:13;;;;;;;1.4;1;;;;;;;24.15;37.83789;995.6677;;;;
2019/04/08 15:40:44;;;;;;;6.1;1.2;;;;;;;24.12;37.70605;995.7017;;;;
2019/04/08 15:43:13;;;;;;;2.2;1.3;;;;;;;24.13;37.87207;995.6905;;;;
2019/04/08 15:45:45;;;;;;;4.8;1.2;;;;;;;24.1;37.88086;995.7108;;;;
2019/04/08 15:48:18;;;;;;;1.6;1.1;;;;;;;24.09;37.9043;995.644;;;;
2019/04/08 15:50:48;;;;;;;4.1;1;;;;;;;24.1;37.78711;995.7012;;;;
2019/04/08 15:53:19;;;;;;;2.5;1.2;;;;;;;24.09;37.73926;995.7045;;;;
2019/04/08 15:55:48;;;;;;;1.9;1.3;;;;;;;24.04;37.79395;995.6873;;;;
2019/04/08 15:58:18;;;;;;;2.6;1;;;;;;;24.02;37.79102;995.665;;;;
2019/04/08 16:00:50;;;;;;;2.3;1;;;;;;;23.99;37.87305;995.707;;;;
2019/04/08 16:03:20;;;;;;;3.9;1;;;;;;;23.98;37.90723;995.7148;;;;
2019/04/08 16:05:51;;;;;;;4.2;1.3;;;;;;;23.98;37.87207;995.7244;;;;
2019/04/08 16:08:22;;;;;;;2.9;1.1;;;;;;;23.96;38;995.6788;;;;
2019/04/08 16:10:54;;;;;;;2.7;1;;;;;;;23.96;38.0127;995.7374;;;;
2019/04/08 16:13:24;;;;;;;4.4;1.2;;;;;;;24;38.11035;995.733;;;;
2019/04/08 16:15:56;;;;;;;4.1;1.3;;;;;;;24.03;37.92383;995.7439;;;;
2019/04/08 16:18:26;;;;;;;3.5;1.4;;;;;;;24.03;38.31348;995.7535;;;;
2019/04/08 16:20:55;;;;;;;3.2;1.2;;;;;;;24.02;38.32422;995.7256;;;;
2019/04/08 16:23:25;;;;;;;2.5;1.3;;;;;;;24.02;38.21777;995.765;;;;
2019/04/08 16:25:57;;;;;;;2.3;1.1;;;;;;;24.02;38.13477;995.7842;;;;
2019/04/08 16:28:27;;;;;;;5.2;1.1;;;;;;;24.02;38.21777;995.7375;;;;
2019/04/08 16:30:57;;;;;;;1.7;1;;;;;;;23.99;38.0498;995.7911;;;;
2019/04/08 16:33:27;;;;;;;2.8;1.4;;;;;;;23.98;38.20313;995.7048;;;;
2019/04/08 16:35:58;;;;;;;2.4;1.2;;;;;;;23.99;38.2627;995.7308;;;;
2019/04/08 16:38:29;;;;;;;2.6;1.5;;;;;;;23.98;38.21484;995.7185;;;;
2019/04/08 16:41:01;;;;;;;2.3;1;;;;;;;23.98;38.20215;995.7477;;;;
2019/04/08 16:43:31;;;;;;;3.6;1.2;;;;;;;23.97;38.16602;995.8236;;;;
2019/04/08 16:46:03;;;;;;;3.2;1.2;;;;;;;23.96;38.18945;995.8158;;;;
2019/04/08 16:48:34;;;;;;;2.6;1.3;;;;;;;23.94;38.19922;995.7561;;;;
2019/04/08 16:51:02;;;;;;;3.1;1.3;;;;;;;23.92;38.18555;995.783;;;;
2019/04/08 16:53:29;;;;;;;3.6;1.2;;;;;;;23.91;38.24414;995.7589;;;;
2019/04/08 16:55:58;;;;;;;3.3;1.1;;;;;;;23.92;38.32813;995.7379;;;;
2019/04/08 16:58:30;;;;;;;3.5;1.2;;;;;;;23.89;38.38379;995.7722;;;;
2019/04/08 17:01:00;;;;;;;2.4;1;;;;;;;23.9;38.34961;995.7703;;;;
2019/04/08 17:03:31;;;;;;;3.1;1.2;;;;;;;23.89;38.45508;995.7681;;;;
2019/04/08 17:06:04;;;;;;;2.8;1.1;;;;;;;23.88;38.53809;995.7698;;;;
2019/04/08 17:08:37;;;;;;;3.8;1.3;;;;;;;23.88;38.50195;995.7617;;;;
2019/04/08 17:11:07;;;;;;;3.2;1.4;;;;;;;23.83;38.47363;995.7126;;;;
2019/04/08 17:13:37;;;;;;;2.8;1.2;;;;;;;23.81;38.49512;995.7178;;;;
2019/04/08 17:16:08;;;;;;;2.7;1.3;;;;;;;23.78;38.46973;995.7795;;;;
2019/04/08 17:18:39;;;;;;;2.4;1.3;;;;;;;23.77;38.24414;995.8027;;;;
2019/04/08 17:21:08;;;;;;;3.5;1.2;;;;;;;23.75;38.07617;995.7726;;;;
2019/04/08 17:23:39;;;;;;;3.5;1;;;;;;;23.73;38.09863;995.858;;;;
2019/04/08 17:26:10;;;;;;;2.5;1.1;;;;;;;23.72;37.99121;995.8106;;;;
2019/04/08 17:28:42;;;;;;;1.4;1;;;;;;;23.66;38.09277;995.8047;;;;
2019/04/08 17:31:13;;;;;;;1.3;1.1;;;;;;;23.64;38.02051;995.8139;;;;
2019/04/08 17:33:42;;;;;;;3.1;1.3;;;;;;;23.63;37.93555;995.8308;;;;
2019/04/08 17:36:13;;;;;;;1.7;1.2;;;;;;;23.61;37.88672;995.793;;;;
2019/04/08 17:38:47;;;;;;;1.9;1;;;;;;;23.6;37.79199;995.861;;;;
2019/04/08 17:41:18;;;;;;;2.6;1.1;;;;;;;23.6;37.73242;995.861;;;;
2019/04/08 17:43:48;;;;;;;2.1;1.4;;;;;;;23.56;37.70605;995.8323;;;;
2019/04/08 17:46:20;;;;;;;2.2;1.3;;;;;;;23.55;37.64551;995.8395;;;;
2019/04/08 17:48:49;;;;;;;1.2;1;;;;;;;23.54;37.62109;995.8606;;;;